sensor_id;sensor_type;location;lat;lon;timestamp;P1;durP1;ratioP1;P2;durP2;ratioP2
11524;SDS011;5819;49.648;8.330;2022-12-18T00:01:26;70.73;;;31.47;;
11524;SDS011;5819;49.648;8.330;2022-12-18T00:03:57;74.07;;;33.13;;
11524;SDS011;5819;49.648;8.330;2022-12-18T00:06:26;73.73;;;32.13;;
11524;SDS011;5819;49.648;8.330;2022-12-18T00:08:56;77.87;;;32.40;;
11524;SDS011;5819;49.648;8.330;2022-12-18T00:11:26;73.80;;;31.50;;
11524;SDS011;5819;49.648;8.330;2022-12-18T00:13:57;82.53;;;33.27;;
11524;SDS011;5819;49.648;8.330;2022-12-18T00:16:27;68.50;;;29.07;;
11524;SDS011;5819;49.648;8.330;2022-12-18T00:18:56;56.07;;;26.80;;
11524;SDS011;5819;49.648;8.330;2022-12-18T00:21:26;66.47;;;27.80;;
11524;SDS011;5819;49.648;8.330;2022-12-18T00:23:55;61.80;;;25.83;;
11524;SDS011;5819;49.648;8.330;2022-12-18T00:26:23;59.90;;;27.60;;
11524;SDS011;5819;49.648;8.330;2022-12-18T00:28:59;53.67;;;24.17;;
11524;SDS011;5819;49.648;8.330;2022-12-18T00:31:29;53.73;;;24.13;;
11524;SDS011;5819;49.648;8.330;2022-12-18T00:33:59;54.07;;;23.30;;
11524;SDS011;5819;49.648;8.330;2022-12-18T00:36:28;54.20;;;24.13;;
11524;SDS011;5819;49.648;8.330;2022-12-18T00:38:58;51.80;;;24.33;;
11524;SDS011;5819;49.648;8.330;2022-12-18T00:41:26;60.10;;;24.47;;
11524;SDS011;5819;49.648;8.330;2022-12-18T00:44:19;55.87;;;23.63;;
11524;SDS011;5819;49.648;8.330;2022-12-18T00:46:47;51.83;;;22.63;;
11524;SDS011;5819;49.648;8.330;2022-12-18T00:49:16;49.40;;;23.20;;
11524;SDS011;5819;49.648;8.330;2022-12-18T00:51:45;54.97;;;24.83;;
11524;SDS011;5819;49.648;8.330;2022-12-18T00:54:13;55.20;;;24.77;;
11524;SDS011;5819;49.648;8.330;2022-12-18T00:56:41;56.83;;;24.60;;
11524;SDS011;5819;49.648;8.330;2022-12-18T00:59:26;60.90;;;24.20;;
11524;SDS011;5819;49.648;8.330;2022-12-18T01:01:56;55.13;;;23.27;;
11524;SDS011;5819;49.648;8.330;2022-12-18T01:04:24;52.07;;;23.53;;
11524;SDS011;5819;49.648;8.330;2022-12-18T01:06:51;53.40;;;24.63;;
11524;SDS011;5819;49.648;8.330;2022-12-18T01:09:19;58.50;;;24.57;;
11524;SDS011;5819;49.648;8.330;2022-12-18T01:11:47;58.07;;;24.97;;
11524;SDS011;5819;49.648;8.330;2022-12-18T01:14:14;58.40;;;25.97;;
11524;SDS011;5819;49.648;8.330;2022-12-18T01:16:44;62.07;;;26.47;;
11524;SDS011;5819;49.648;8.330;2022-12-18T01:19:12;57.97;;;24.93;;
11524;SDS011;5819;49.648;8.330;2022-12-18T01:21:40;66.43;;;27.23;;
11524;SDS011;5819;49.648;8.330;2022-12-18T01:24:10;61.13;;;25.50;;
11524;SDS011;5819;49.648;8.330;2022-12-18T01:26:40;59.47;;;24.83;;
11524;SDS011;5819;49.648;8.330;2022-12-18T01:29:08;61.93;;;26.37;;
11524;SDS011;5819;49.648;8.330;2022-12-18T01:31:35;53.07;;;24.80;;
11524;SDS011;5819;49.648;8.330;2022-12-18T01:34:05;61.97;;;25.53;;
11524;SDS011;5819;49.648;8.330;2022-12-18T01:36:34;55.40;;;25.63;;
11524;SDS011;5819;49.648;8.330;2022-12-18T01:39:04;57.50;;;26.27;;
11524;SDS011;5819;49.648;8.330;2022-12-18T01:41:33;58.67;;;26.00;;
11524;SDS011;5819;49.648;8.330;2022-12-18T01:47:23;54.47;;;25.33;;
11524;SDS011;5819;49.648;8.330;2022-12-18T01:49:55;59.27;;;26.60;;
11524;SDS011;5819;49.648;8.330;2022-12-18T01:52:25;59.50;;;26.63;;
11524;SDS011;5819;49.648;8.330;2022-12-18T01:54:55;67.73;;;28.83;;
11524;SDS011;5819;49.648;8.330;2022-12-18T01:57:25;60.80;;;27.17;;
11524;SDS011;5819;49.648;8.330;2022-12-18T01:59:54;62.97;;;26.60;;
11524;SDS011;5819;49.648;8.330;2022-12-18T02:02:26;62.53;;;27.57;;
11524;SDS011;5819;49.648;8.330;2022-12-18T02:04:57;71.23;;;28.60;;
11524;SDS011;5819;49.648;8.330;2022-12-18T02:07:28;63.93;;;27.37;;
11524;SDS011;5819;49.648;8.330;2022-12-18T02:10:05;64.23;;;28.20;;
11524;SDS011;5819;49.648;8.330;2022-12-18T02:12:40;68.80;;;28.87;;
11524;SDS011;5819;49.648;8.330;2022-12-18T02:15:14;60.27;;;27.17;;
11524;SDS011;5819;49.648;8.330;2022-12-18T02:17:48;67.77;;;28.53;;
11524;SDS011;5819;49.648;8.330;2022-12-18T02:20:23;64.37;;;27.30;;
11524;SDS011;5819;49.648;8.330;2022-12-18T02:23:01;62.67;;;28.00;;
11524;SDS011;5819;49.648;8.330;2022-12-18T02:28:35;60.83;;;27.43;;
11524;SDS011;5819;49.648;8.330;2022-12-18T02:31:10;60.43;;;27.10;;
11524;SDS011;5819;49.648;8.330;2022-12-18T02:33:43;67.93;;;27.73;;
11524;SDS011;5819;49.648;8.330;2022-12-18T02:36:12;61.50;;;26.70;;
11524;SDS011;5819;49.648;8.330;2022-12-18T02:38:44;69.17;;;29.43;;
11524;SDS011;5819;49.648;8.330;2022-12-18T02:41:16;68.63;;;29.07;;
11524;SDS011;5819;49.648;8.330;2022-12-18T02:43:46;59.10;;;27.37;;
11524;SDS011;5819;49.648;8.330;2022-12-18T02:46:31;61.37;;;28.00;;
11524;SDS011;5819;49.648;8.330;2022-12-18T02:49:11;66.03;;;27.73;;
11524;SDS011;5819;49.648;8.330;2022-12-18T02:51:49;60.37;;;26.67;;
11524;SDS011;5819;49.648;8.330;2022-12-18T02:54:23;61.00;;;27.20;;
11524;SDS011;5819;49.648;8.330;2022-12-18T02:57:01;53.87;;;25.40;;
11524;SDS011;5819;49.648;8.330;2022-12-18T02:59:41;55.23;;;25.40;;
11524;SDS011;5819;49.648;8.330;2022-12-18T03:02:18;51.57;;;23.90;;
11524;SDS011;5819;49.648;8.330;2022-12-18T03:04:54;53.23;;;24.30;;
11524;SDS011;5819;49.648;8.330;2022-12-18T03:07:30;59.20;;;26.70;;
11524;SDS011;5819;49.648;8.330;2022-12-18T03:10:09;54.67;;;24.17;;
11524;SDS011;5819;49.648;8.330;2022-12-18T03:12:44;56.97;;;26.40;;
11524;SDS011;5819;49.648;8.330;2022-12-18T03:15:19;62.93;;;27.40;;
11524;SDS011;5819;49.648;8.330;2022-12-18T03:17:57;58.60;;;27.33;;
11524;SDS011;5819;49.648;8.330;2022-12-18T03:20:30;58.47;;;26.70;;
11524;SDS011;5819;49.648;8.330;2022-12-18T03:23:02;54.83;;;25.90;;
11524;SDS011;5819;49.648;8.330;2022-12-18T03:25:34;56.07;;;26.47;;
11524;SDS011;5819;49.648;8.330;2022-12-18T03:28:08;54.53;;;25.17;;
11524;SDS011;5819;49.648;8.330;2022-12-18T03:30:40;60.53;;;26.00;;
11524;SDS011;5819;49.648;8.330;2022-12-18T03:33:12;57.00;;;26.43;;
11524;SDS011;5819;49.648;8.330;2022-12-18T03:35:48;56.00;;;26.90;;
11524;SDS011;5819;49.648;8.330;2022-12-18T03:38:17;55.40;;;25.23;;
11524;SDS011;5819;49.648;8.330;2022-12-18T03:40:50;55.10;;;24.90;;
11524;SDS011;5819;49.648;8.330;2022-12-18T03:43:29;59.50;;;26.47;;
11524;SDS011;5819;49.648;8.330;2022-12-18T03:46:07;55.90;;;27.03;;
11524;SDS011;5819;49.648;8.330;2022-12-18T03:48:43;57.87;;;26.43;;
11524;SDS011;5819;49.648;8.330;2022-12-18T03:51:18;56.70;;;26.87;;
11524;SDS011;5819;49.648;8.330;2022-12-18T03:53:53;56.20;;;26.73;;
11524;SDS011;5819;49.648;8.330;2022-12-18T03:56:30;53.07;;;25.83;;
11524;SDS011;5819;49.648;8.330;2022-12-18T03:59:03;56.20;;;27.57;;
11524;SDS011;5819;49.648;8.330;2022-12-18T04:01:34;58.03;;;27.60;;
11524;SDS011;5819;49.648;8.330;2022-12-18T04:04:06;58.07;;;25.83;;
11524;SDS011;5819;49.648;8.330;2022-12-18T04:06:38;60.10;;;28.27;;
11524;SDS011;5819;49.648;8.330;2022-12-18T04:09:10;60.53;;;27.77;;
11524;SDS011;5819;49.648;8.330;2022-12-18T04:11:42;55.57;;;27.93;;
11524;SDS011;5819;49.648;8.330;2022-12-18T04:14:14;59.67;;;27.17;;
11524;SDS011;5819;49.648;8.330;2022-12-18T04:16:46;56.03;;;28.07;;
11524;SDS011;5819;49.648;8.330;2022-12-18T04:19:17;59.10;;;26.50;;
11524;SDS011;5819;49.648;8.330;2022-12-18T04:21:50;52.03;;;25.73;;
11524;SDS011;5819;49.648;8.330;2022-12-18T04:24:18;53.33;;;25.73;;
11524;SDS011;5819;49.648;8.330;2022-12-18T04:27:02;59.13;;;26.33;;
11524;SDS011;5819;49.648;8.330;2022-12-18T04:29:39;55.90;;;25.67;;
11524;SDS011;5819;49.648;8.330;2022-12-18T04:32:07;52.27;;;24.27;;
11524;SDS011;5819;49.648;8.330;2022-12-18T04:34:36;56.17;;;25.73;;
11524;SDS011;5819;49.648;8.330;2022-12-18T04:37:04;53.93;;;26.67;;
11524;SDS011;5819;49.648;8.330;2022-12-18T04:39:32;59.37;;;26.40;;
11524;SDS011;5819;49.648;8.330;2022-12-18T04:42:05;53.87;;;26.07;;
11524;SDS011;5819;49.648;8.330;2022-12-18T04:44:33;53.87;;;26.07;;
11524;SDS011;5819;49.648;8.330;2022-12-18T04:47:02;53.77;;;24.47;;
11524;SDS011;5819;49.648;8.330;2022-12-18T04:49:30;50.97;;;24.30;;
11524;SDS011;5819;49.648;8.330;2022-12-18T04:51:58;55.67;;;25.70;;
11524;SDS011;5819;49.648;8.330;2022-12-18T04:54:27;51.93;;;24.97;;
11524;SDS011;5819;49.648;8.330;2022-12-18T04:56:54;49.57;;;24.97;;
11524;SDS011;5819;49.648;8.330;2022-12-18T04:59:22;44.77;;;24.17;;
11524;SDS011;5819;49.648;8.330;2022-12-18T05:01:50;56.70;;;24.83;;
11524;SDS011;5819;49.648;8.330;2022-12-18T05:04:20;53.73;;;25.77;;
11524;SDS011;5819;49.648;8.330;2022-12-18T05:06:48;48.17;;;24.40;;
11524;SDS011;5819;49.648;8.330;2022-12-18T05:09:16;48.80;;;25.33;;
11524;SDS011;5819;49.648;8.330;2022-12-18T05:11:44;54.70;;;25.97;;
11524;SDS011;5819;49.648;8.330;2022-12-18T05:14:13;48.63;;;24.40;;
11524;SDS011;5819;49.648;8.330;2022-12-18T05:16:40;55.50;;;24.33;;
11524;SDS011;5819;49.648;8.330;2022-12-18T05:19:09;50.07;;;23.97;;
11524;SDS011;5819;49.648;8.330;2022-12-18T05:21:38;49.17;;;23.00;;
11524;SDS011;5819;49.648;8.330;2022-12-18T05:24:06;53.90;;;24.93;;
11524;SDS011;5819;49.648;8.330;2022-12-18T05:26:34;51.60;;;24.17;;
11524;SDS011;5819;49.648;8.330;2022-12-18T05:29:02;46.27;;;23.17;;
11524;SDS011;5819;49.648;8.330;2022-12-18T05:31:30;57.70;;;26.57;;
11524;SDS011;5819;49.648;8.330;2022-12-18T05:34:05;57.40;;;26.43;;
11524;SDS011;5819;49.648;8.330;2022-12-18T05:36:33;53.97;;;25.23;;
11524;SDS011;5819;49.648;8.330;2022-12-18T05:39:02;56.03;;;26.37;;
11524;SDS011;5819;49.648;8.330;2022-12-18T05:41:31;54.60;;;26.03;;
11524;SDS011;5819;49.648;8.330;2022-12-18T05:43:59;54.63;;;24.80;;
11524;SDS011;5819;49.648;8.330;2022-12-18T05:46:26;56.73;;;26.87;;
11524;SDS011;5819;49.648;8.330;2022-12-18T05:48:58;56.90;;;25.23;;
11524;SDS011;5819;49.648;8.330;2022-12-18T05:51:26;55.03;;;24.63;;
11524;SDS011;5819;49.648;8.330;2022-12-18T05:53:54;51.70;;;25.50;;
11524;SDS011;5819;49.648;8.330;2022-12-18T05:56:24;52.70;;;26.20;;
11524;SDS011;5819;49.648;8.330;2022-12-18T05:58:52;58.93;;;25.67;;
11524;SDS011;5819;49.648;8.330;2022-12-18T06:01:22;51.80;;;25.47;;
11524;SDS011;5819;49.648;8.330;2022-12-18T06:03:51;57.03;;;27.00;;
11524;SDS011;5819;49.648;8.330;2022-12-18T06:06:20;63.10;;;28.73;;
11524;SDS011;5819;49.648;8.330;2022-12-18T06:08:49;59.07;;;27.70;;
11524;SDS011;5819;49.648;8.330;2022-12-18T06:11:20;59.63;;;26.13;;
11524;SDS011;5819;49.648;8.330;2022-12-18T06:13:52;55.33;;;26.07;;
11524;SDS011;5819;49.648;8.330;2022-12-18T06:16:24;54.23;;;25.27;;
11524;SDS011;5819;49.648;8.330;2022-12-18T06:18:52;54.43;;;24.93;;
11524;SDS011;5819;49.648;8.330;2022-12-18T06:21:20;55.07;;;25.53;;
11524;SDS011;5819;49.648;8.330;2022-12-18T06:23:48;53.37;;;24.90;;
11524;SDS011;5819;49.648;8.330;2022-12-18T06:26:16;54.20;;;24.17;;
11524;SDS011;5819;49.648;8.330;2022-12-18T06:28:49;53.93;;;25.30;;
11524;SDS011;5819;49.648;8.330;2022-12-18T06:31:18;56.03;;;25.83;;
11524;SDS011;5819;49.648;8.330;2022-12-18T06:33:46;58.17;;;25.87;;
11524;SDS011;5819;49.648;8.330;2022-12-18T06:36:14;52.77;;;25.40;;
11524;SDS011;5819;49.648;8.330;2022-12-18T06:38:43;53.13;;;24.30;;
11524;SDS011;5819;49.648;8.330;2022-12-18T06:41:11;53.57;;;24.63;;
11524;SDS011;5819;49.648;8.330;2022-12-18T06:43:40;48.37;;;24.00;;
11524;SDS011;5819;49.648;8.330;2022-12-18T06:46:10;49.63;;;24.93;;
11524;SDS011;5819;49.648;8.330;2022-12-18T06:48:38;52.67;;;24.70;;
11524;SDS011;5819;49.648;8.330;2022-12-18T06:51:06;53.13;;;23.93;;
11524;SDS011;5819;49.648;8.330;2022-12-18T06:53:35;50.20;;;23.87;;
11524;SDS011;5819;49.648;8.330;2022-12-18T06:56:04;53.43;;;25.57;;
11524;SDS011;5819;49.648;8.330;2022-12-18T06:58:36;51.03;;;24.07;;
11524;SDS011;5819;49.648;8.330;2022-12-18T07:01:05;49.10;;;23.43;;
11524;SDS011;5819;49.648;8.330;2022-12-18T07:03:35;54.03;;;25.83;;
11524;SDS011;5819;49.648;8.330;2022-12-18T07:06:04;52.03;;;24.37;;
11524;SDS011;5819;49.648;8.330;2022-12-18T07:08:32;49.60;;;23.77;;
11524;SDS011;5819;49.648;8.330;2022-12-18T07:11:02;49.77;;;23.43;;
11524;SDS011;5819;49.648;8.330;2022-12-18T07:13:30;46.60;;;22.67;;
11524;SDS011;5819;49.648;8.330;2022-12-18T07:16:03;52.73;;;24.37;;
11524;SDS011;5819;49.648;8.330;2022-12-18T07:18:42;54.43;;;23.23;;
11524;SDS011;5819;49.648;8.330;2022-12-18T07:21:10;53.03;;;25.17;;
11524;SDS011;5819;49.648;8.330;2022-12-18T07:23:42;54.20;;;25.03;;
11524;SDS011;5819;49.648;8.330;2022-12-18T07:26:11;60.57;;;26.77;;
11524;SDS011;5819;49.648;8.330;2022-12-18T07:28:40;56.87;;;25.77;;
11524;SDS011;5819;49.648;8.330;2022-12-18T07:31:10;55.00;;;24.53;;
11524;SDS011;5819;49.648;8.330;2022-12-18T07:33:42;54.73;;;25.83;;
11524;SDS011;5819;49.648;8.330;2022-12-18T07:36:12;54.97;;;25.30;;
11524;SDS011;5819;49.648;8.330;2022-12-18T07:38:40;58.80;;;25.63;;
11524;SDS011;5819;49.648;8.330;2022-12-18T07:41:08;53.13;;;25.50;;
11524;SDS011;5819;49.648;8.330;2022-12-18T07:43:38;58.20;;;25.60;;
11524;SDS011;5819;49.648;8.330;2022-12-18T07:46:08;50.00;;;24.63;;
11524;SDS011;5819;49.648;8.330;2022-12-18T07:48:38;52.90;;;24.53;;
11524;SDS011;5819;49.648;8.330;2022-12-18T07:51:08;55.57;;;25.17;;
11524;SDS011;5819;49.648;8.330;2022-12-18T07:53:36;56.90;;;26.30;;
11524;SDS011;5819;49.648;8.330;2022-12-18T07:56:06;55.57;;;26.33;;
11524;SDS011;5819;49.648;8.330;2022-12-18T07:58:54;52.97;;;24.50;;
11524;SDS011;5819;49.648;8.330;2022-12-18T08:01:22;51.90;;;25.67;;
11524;SDS011;5819;49.648;8.330;2022-12-18T08:03:51;52.27;;;25.27;;
11524;SDS011;5819;49.648;8.330;2022-12-18T08:06:20;55.00;;;24.80;;
11524;SDS011;5819;49.648;8.330;2022-12-18T08:08:51;58.93;;;26.27;;
11524;SDS011;5819;49.648;8.330;2022-12-18T08:11:19;52.13;;;23.80;;
11524;SDS011;5819;49.648;8.330;2022-12-18T08:13:48;53.63;;;24.73;;
11524;SDS011;5819;49.648;8.330;2022-12-18T08:16:16;55.43;;;25.27;;
11524;SDS011;5819;49.648;8.330;2022-12-18T08:18:45;53.07;;;26.20;;
11524;SDS011;5819;49.648;8.330;2022-12-18T08:21:13;54.87;;;25.53;;
11524;SDS011;5819;49.648;8.330;2022-12-18T08:23:44;52.87;;;24.50;;
11524;SDS011;5819;49.648;8.330;2022-12-18T08:26:13;47.97;;;24.30;;
11524;SDS011;5819;49.648;8.330;2022-12-18T08:28:41;54.77;;;25.97;;
11524;SDS011;5819;49.648;8.330;2022-12-18T08:31:09;55.60;;;25.33;;
11524;SDS011;5819;49.648;8.330;2022-12-18T08:33:38;50.73;;;25.40;;
11524;SDS011;5819;49.648;8.330;2022-12-18T08:36:08;53.40;;;25.20;;
11524;SDS011;5819;49.648;8.330;2022-12-18T08:38:37;55.43;;;25.07;;
11524;SDS011;5819;49.648;8.330;2022-12-18T08:41:06;58.07;;;27.33;;
11524;SDS011;5819;49.648;8.330;2022-12-18T08:43:36;53.20;;;25.07;;
11524;SDS011;5819;49.648;8.330;2022-12-18T08:46:23;51.60;;;25.87;;
11524;SDS011;5819;49.648;8.330;2022-12-18T08:48:53;51.83;;;25.93;;
11524;SDS011;5819;49.648;8.330;2022-12-18T08:51:22;54.77;;;28.17;;
11524;SDS011;5819;49.648;8.330;2022-12-18T08:53:50;52.43;;;27.87;;
11524;SDS011;5819;49.648;8.330;2022-12-18T08:56:19;56.27;;;26.83;;
11524;SDS011;5819;49.648;8.330;2022-12-18T08:58:46;58.70;;;28.17;;
11524;SDS011;5819;49.648;8.330;2022-12-18T09:01:14;64.37;;;31.37;;
11524;SDS011;5819;49.648;8.330;2022-12-18T09:03:42;59.30;;;31.17;;
11524;SDS011;5819;49.648;8.330;2022-12-18T09:06:12;57.47;;;31.13;;
11524;SDS011;5819;49.648;8.330;2022-12-18T09:08:42;60.77;;;30.20;;
11524;SDS011;5819;49.648;8.330;2022-12-18T09:11:11;58.13;;;29.93;;
11524;SDS011;5819;49.648;8.330;2022-12-18T09:13:42;46.43;;;26.03;;
11524;SDS011;5819;49.648;8.330;2022-12-18T09:16:10;55.10;;;28.40;;
11524;SDS011;5819;49.648;8.330;2022-12-18T09:18:38;51.17;;;27.63;;
11524;SDS011;5819;49.648;8.330;2022-12-18T09:21:09;53.90;;;27.63;;
11524;SDS011;5819;49.648;8.330;2022-12-18T09:23:38;54.57;;;26.77;;
11524;SDS011;5819;49.648;8.330;2022-12-18T09:26:07;52.13;;;27.10;;
11524;SDS011;5819;49.648;8.330;2022-12-18T09:28:35;58.00;;;28.90;;
11524;SDS011;5819;49.648;8.330;2022-12-18T09:31:05;58.70;;;32.20;;
11524;SDS011;5819;49.648;8.330;2022-12-18T09:33:35;50.37;;;28.57;;
11524;SDS011;5819;49.648;8.330;2022-12-18T09:36:05;53.70;;;28.47;;
11524;SDS011;5819;49.648;8.330;2022-12-18T09:38:34;53.10;;;29.30;;
11524;SDS011;5819;49.648;8.330;2022-12-18T09:41:04;54.87;;;28.57;;
11524;SDS011;5819;49.648;8.330;2022-12-18T09:43:44;50.20;;;26.97;;
11524;SDS011;5819;49.648;8.330;2022-12-18T09:46:20;50.90;;;26.20;;
11524;SDS011;5819;49.648;8.330;2022-12-18T09:48:56;45.97;;;26.60;;
11524;SDS011;5819;49.648;8.330;2022-12-18T09:51:27;51.23;;;27.53;;
11524;SDS011;5819;49.648;8.330;2022-12-18T09:53:58;55.27;;;27.83;;
11524;SDS011;5819;49.648;8.330;2022-12-18T09:56:29;48.70;;;27.67;;
11524;SDS011;5819;49.648;8.330;2022-12-18T09:59:02;48.57;;;26.70;;
11524;SDS011;5819;49.648;8.330;2022-12-18T10:01:33;51.00;;;28.40;;
11524;SDS011;5819;49.648;8.330;2022-12-18T10:04:09;55.90;;;28.17;;
11524;SDS011;5819;49.648;8.330;2022-12-18T10:06:38;51.57;;;28.07;;
11524;SDS011;5819;49.648;8.330;2022-12-18T10:09:14;51.73;;;27.37;;
11524;SDS011;5819;49.648;8.330;2022-12-18T10:11:53;51.47;;;27.03;;
11524;SDS011;5819;49.648;8.330;2022-12-18T10:14:27;56.73;;;29.37;;
11524;SDS011;5819;49.648;8.330;2022-12-18T10:17:06;54.97;;;28.83;;
11524;SDS011;5819;49.648;8.330;2022-12-18T10:19:45;58.57;;;29.30;;
11524;SDS011;5819;49.648;8.330;2022-12-18T10:22:22;52.40;;;27.90;;
11524;SDS011;5819;49.648;8.330;2022-12-18T10:25:01;50.83;;;28.13;;
11524;SDS011;5819;49.648;8.330;2022-12-18T10:27:35;59.47;;;30.27;;
11524;SDS011;5819;49.648;8.330;2022-12-18T10:30:04;55.50;;;28.77;;
11524;SDS011;5819;49.648;8.330;2022-12-18T10:32:42;54.70;;;28.43;;
11524;SDS011;5819;49.648;8.330;2022-12-18T10:35:11;53.17;;;29.57;;
11524;SDS011;5819;49.648;8.330;2022-12-18T10:38:05;53.37;;;27.90;;
11524;SDS011;5819;49.648;8.330;2022-12-18T10:40:47;54.80;;;30.07;;
11524;SDS011;5819;49.648;8.330;2022-12-18T10:43:19;58.27;;;29.27;;
11524;SDS011;5819;49.648;8.330;2022-12-18T10:46:09;59.67;;;29.40;;
11524;SDS011;5819;49.648;8.330;2022-12-18T10:48:50;60.50;;;31.83;;
11524;SDS011;5819;49.648;8.330;2022-12-18T10:51:22;59.27;;;30.43;;
11524;SDS011;5819;49.648;8.330;2022-12-18T10:53:56;51.60;;;29.60;;
11524;SDS011;5819;49.648;8.330;2022-12-18T10:56:28;57.67;;;29.73;;
11524;SDS011;5819;49.648;8.330;2022-12-18T10:58:59;59.43;;;30.97;;
11524;SDS011;5819;49.648;8.330;2022-12-18T11:01:33;55.87;;;29.87;;
11524;SDS011;5819;49.648;8.330;2022-12-18T11:04:17;53.37;;;30.87;;
11524;SDS011;5819;49.648;8.330;2022-12-18T11:06:54;56.20;;;32.43;;
11524;SDS011;5819;49.648;8.330;2022-12-18T11:09:24;55.37;;;30.33;;
11524;SDS011;5819;49.648;8.330;2022-12-18T11:11:54;59.40;;;33.03;;
11524;SDS011;5819;49.648;8.330;2022-12-18T11:14:26;53.97;;;31.50;;
11524;SDS011;5819;49.648;8.330;2022-12-18T11:16:57;56.23;;;32.77;;
11524;SDS011;5819;49.648;8.330;2022-12-18T11:19:47;57.50;;;32.17;;
11524;SDS011;5819;49.648;8.330;2022-12-18T11:22:21;63.17;;;35.00;;
11524;SDS011;5819;49.648;8.330;2022-12-18T11:24:53;66.53;;;36.27;;
11524;SDS011;5819;49.648;8.330;2022-12-18T11:27:47;59.90;;;33.40;;
11524;SDS011;5819;49.648;8.330;2022-12-18T11:30:20;56.67;;;32.53;;
11524;SDS011;5819;49.648;8.330;2022-12-18T11:32:51;61.80;;;35.60;;
11524;SDS011;5819;49.648;8.330;2022-12-18T11:35:25;62.30;;;36.43;;
11524;SDS011;5819;49.648;8.330;2022-12-18T11:38:04;59.40;;;34.63;;
11524;SDS011;5819;49.648;8.330;2022-12-18T11:40:42;57.77;;;33.03;;
11524;SDS011;5819;49.648;8.330;2022-12-18T11:43:14;58.83;;;31.63;;
11524;SDS011;5819;49.648;8.330;2022-12-18T11:45:47;63.20;;;33.60;;
11524;SDS011;5819;49.648;8.330;2022-12-18T11:48:21;62.40;;;33.70;;
11524;SDS011;5819;49.648;8.330;2022-12-18T11:50:54;59.13;;;30.97;;
11524;SDS011;5819;49.648;8.330;2022-12-18T11:53:23;57.53;;;32.50;;
11524;SDS011;5819;49.648;8.330;2022-12-18T11:56:00;58.67;;;33.53;;
11524;SDS011;5819;49.648;8.330;2022-12-18T11:58:40;64.73;;;32.23;;
11524;SDS011;5819;49.648;8.330;2022-12-18T12:01:16;57.47;;;31.97;;
11524;SDS011;5819;49.648;8.330;2022-12-18T12:03:57;60.37;;;32.83;;
11524;SDS011;5819;49.648;8.330;2022-12-18T12:06:45;63.70;;;33.23;;
11524;SDS011;5819;49.648;8.330;2022-12-18T12:09:19;66.70;;;37.17;;
11524;SDS011;5819;49.648;8.330;2022-12-18T12:11:58;66.00;;;35.17;;
11524;SDS011;5819;49.648;8.330;2022-12-18T12:14:40;61.10;;;34.00;;
11524;SDS011;5819;49.648;8.330;2022-12-18T12:17:17;65.63;;;35.93;;
11524;SDS011;5819;49.648;8.330;2022-12-18T12:19:57;66.17;;;35.47;;
11524;SDS011;5819;49.648;8.330;2022-12-18T12:22:38;56.90;;;32.83;;
11524;SDS011;5819;49.648;8.330;2022-12-18T12:28:06;60.60;;;32.67;;
11524;SDS011;5819;49.648;8.330;2022-12-18T12:30:50;66.93;;;34.90;;
11524;SDS011;5819;49.648;8.330;2022-12-18T12:33:29;59.17;;;32.67;;
11524;SDS011;5819;49.648;8.330;2022-12-18T12:36:07;66.57;;;34.40;;
11524;SDS011;5819;49.648;8.330;2022-12-18T12:38:42;65.57;;;34.53;;
11524;SDS011;5819;49.648;8.330;2022-12-18T12:41:18;62.80;;;34.20;;
11524;SDS011;5819;49.648;8.330;2022-12-18T12:44:07;68.60;;;35.37;;
11524;SDS011;5819;49.648;8.330;2022-12-18T12:46:40;75.97;;;37.30;;
11524;SDS011;5819;49.648;8.330;2022-12-18T12:49:11;66.50;;;35.57;;
11524;SDS011;5819;49.648;8.330;2022-12-18T12:51:43;68.10;;;35.87;;
11524;SDS011;5819;49.648;8.330;2022-12-18T12:54:15;70.60;;;36.87;;
11524;SDS011;5819;49.648;8.330;2022-12-18T12:56:48;67.90;;;36.33;;
11524;SDS011;5819;49.648;8.330;2022-12-18T12:59:23;69.13;;;37.53;;
11524;SDS011;5819;49.648;8.330;2022-12-18T13:01:59;73.93;;;36.43;;
11524;SDS011;5819;49.648;8.330;2022-12-18T13:04:34;69.30;;;36.97;;
11524;SDS011;5819;49.648;8.330;2022-12-18T13:07:10;68.10;;;35.00;;
11524;SDS011;5819;49.648;8.330;2022-12-18T13:12:58;63.63;;;34.90;;
11524;SDS011;5819;49.648;8.330;2022-12-18T13:15:29;71.40;;;37.87;;
11524;SDS011;5819;49.648;8.330;2022-12-18T13:18:05;70.10;;;37.70;;
11524;SDS011;5819;49.648;8.330;2022-12-18T13:20:42;65.23;;;36.67;;
11524;SDS011;5819;49.648;8.330;2022-12-18T13:23:33;71.83;;;36.57;;
11524;SDS011;5819;49.648;8.330;2022-12-18T13:28:59;71.80;;;37.10;;
11524;SDS011;5819;49.648;8.330;2022-12-18T13:34:39;85.80;;;36.70;;
11524;SDS011;5819;49.648;8.330;2022-12-18T13:43:23;66.27;;;35.03;;
11524;SDS011;5819;49.648;8.330;2022-12-18T13:46:03;66.97;;;34.43;;
11524;SDS011;5819;49.648;8.330;2022-12-18T13:48:35;69.30;;;37.27;;
11524;SDS011;5819;49.648;8.330;2022-12-18T13:51:07;69.90;;;36.77;;
11524;SDS011;5819;49.648;8.330;2022-12-18T13:53:38;73.63;;;38.07;;
11524;SDS011;5819;49.648;8.330;2022-12-18T13:56:15;69.13;;;37.60;;
11524;SDS011;5819;49.648;8.330;2022-12-18T14:01:34;78.73;;;40.07;;
11524;SDS011;5819;49.648;8.330;2022-12-18T14:04:09;77.03;;;37.37;;
11524;SDS011;5819;49.648;8.330;2022-12-18T14:06:39;75.77;;;38.67;;
11524;SDS011;5819;49.648;8.330;2022-12-18T14:09:10;71.20;;;37.67;;
11524;SDS011;5819;49.648;8.330;2022-12-18T14:11:47;76.43;;;38.60;;
11524;SDS011;5819;49.648;8.330;2022-12-18T14:14:17;65.07;;;37.57;;
11524;SDS011;5819;49.648;8.330;2022-12-18T14:16:47;77.17;;;39.57;;
11524;SDS011;5819;49.648;8.330;2022-12-18T14:19:16;75.43;;;38.50;;
11524;SDS011;5819;49.648;8.330;2022-12-18T14:21:45;69.40;;;37.83;;
11524;SDS011;5819;49.648;8.330;2022-12-18T14:24:15;73.27;;;39.37;;
11524;SDS011;5819;49.648;8.330;2022-12-18T14:26:45;73.43;;;38.77;;
11524;SDS011;5819;49.648;8.330;2022-12-18T14:29:23;72.50;;;38.93;;
11524;SDS011;5819;49.648;8.330;2022-12-18T14:32:06;76.63;;;39.77;;
11524;SDS011;5819;49.648;8.330;2022-12-18T14:34:44;77.40;;;39.17;;
11524;SDS011;5819;49.648;8.330;2022-12-18T14:37:12;77.53;;;40.40;;
11524;SDS011;5819;49.648;8.330;2022-12-18T14:39:51;76.87;;;40.17;;
11524;SDS011;5819;49.648;8.330;2022-12-18T14:42:20;84.77;;;41.70;;
11524;SDS011;5819;49.648;8.330;2022-12-18T14:44:48;76.87;;;40.43;;
11524;SDS011;5819;49.648;8.330;2022-12-18T14:47:37;77.90;;;41.50;;
11524;SDS011;5819;49.648;8.330;2022-12-18T14:50:11;81.27;;;41.43;;
11524;SDS011;5819;49.648;8.330;2022-12-18T14:52:41;79.30;;;40.90;;
11524;SDS011;5819;49.648;8.330;2022-12-18T14:55:14;85.00;;;40.67;;
11524;SDS011;5819;49.648;8.330;2022-12-18T14:57:43;78.23;;;42.40;;
11524;SDS011;5819;49.648;8.330;2022-12-18T15:00:14;79.77;;;41.33;;
11524;SDS011;5819;49.648;8.330;2022-12-18T15:02:46;73.10;;;41.57;;
11524;SDS011;5819;49.648;8.330;2022-12-18T15:05:19;78.33;;;41.23;;
11524;SDS011;5819;49.648;8.330;2022-12-18T15:07:49;81.13;;;40.37;;
11524;SDS011;5819;49.648;8.330;2022-12-18T15:10:19;75.27;;;39.90;;
11524;SDS011;5819;49.648;8.330;2022-12-18T15:12:49;72.93;;;38.97;;
11524;SDS011;5819;49.648;8.330;2022-12-18T15:18:16;74.67;;;39.20;;
11524;SDS011;5819;49.648;8.330;2022-12-18T15:20:46;73.73;;;39.30;;
11524;SDS011;5819;49.648;8.330;2022-12-18T15:23:19;81.07;;;41.67;;
11524;SDS011;5819;49.648;8.330;2022-12-18T15:25:49;78.50;;;41.07;;
11524;SDS011;5819;49.648;8.330;2022-12-18T15:28:24;77.43;;;42.03;;
11524;SDS011;5819;49.648;8.330;2022-12-18T15:30:57;77.87;;;40.83;;
11524;SDS011;5819;49.648;8.330;2022-12-18T15:33:30;81.93;;;42.47;;